Time;durP1;ratioP1;P1;durP2;ratioP2;P2;SDS_P1;SDS_P2;PMS_P1;PMS_P2;Temp;Humidity;BMP_temperature;BMP_pressure;BME280_temperature;BME280_humidity;BME280_pressure;Samples;Min_cycle;Max_cycle;Signal;HPM_P1;HPM_P2
2021/12/16 00:09:51;;;;;;;51.63;25.95;;;6.90;99.90;;;;;;4897281;29;20082;-95
2021/12/16 00:29:30;;;;;;;46.03;24.13;;;7.20;99.90;;;;;;4921323;29;20496;-96
2021/12/16 00:31:56;;;;;;;51.92;25.30;;;7.10;99.90;;;;;;4912000;29;20047;-95
2021/12/16 00:34:30;;;;;;;46.97;24.03;;;7.20;99.90;;;;;;4914343;29;20042;-96
2021/12/16 00:36:57;;;;;;;44.25;24.40;;;7.20;99.90;;;;;;4930117;29;20051;-96
2021/12/16 00:39:27;;;;;;;46.83;24.27;;;7.20;99.90;;;;;;4905544;29;20517;-96
2021/12/16 00:41:59;;;;;;;45.22;23.63;;;7.20;99.90;;;;;;4905463;29;20039;-96
2021/12/16 00:49:42;;;;;;;51.72;25.90;;;7.40;99.90;;;;;;4901978;29;20051;-95
2021/12/16 00:55:08;;;;;;;47.63;23.98;;;7.70;99.90;;;;;;4928909;29;20126;-96
2021/12/16 00:57:34;;;;;;;48.85;25.17;;;7.30;99.90;;;;;;4908243;29;20039;-95
2021/12/16 01:00:03;;;;;;;41.60;24.77;;;7.30;99.90;;;;;;4903578;29;20106;-96
2021/12/16 01:35:02;;;;;;;49.67;24.88;;;7.40;99.90;;;;;;4913770;29;20075;-96
2021/12/16 01:40:39;;;;;;;53.35;25.98;;;7.40;99.90;;;;;;4901095;29;20054;-96
2021/12/16 01:51:04;;;;;;;51.65;25.65;;;7.30;99.90;;;;;;4926964;29;20125;-96
2021/12/16 01:58:49;;;;;;;57.67;26.33;;;7.30;99.90;;;;;;4908496;29;20142;-95
2021/12/16 02:01:20;;;;;;;51.67;26.52;;;8.10;99.90;;;;;;4891382;29;20028;-95
2021/12/16 02:03:53;;;;;;;58.58;26.42;;;7.30;99.90;;;;;;4906529;29;20519;-96
2021/12/16 02:08:51;;;;;;;51.78;26.58;;;7.30;99.90;;;;;;4929880;29;20039;-96
2021/12/16 02:35:43;;;;;;;49.85;25.30;;;7.10;99.90;;;;;;4894716;29;20048;-95
2021/12/16 02:38:11;;;;;;;57.70;29.42;;;7.10;99.90;;;;;;4907180;29;20115;-94
2021/12/16 02:40:38;;;;;;;53.13;26.10;;;7.40;99.90;;;;;;4906001;29;20035;-96
2021/12/16 02:48:39;;;;;;;52.40;27.88;;;7.40;99.90;;;;;;4898493;29;20058;-96
2021/12/16 02:51:04;;;;;;;;;;;7.10;99.90;;;;;;4894188;29;20039;-96
2021/12/16 02:53:30;;;;;;;59.42;27.77;;;7.20;99.90;;;;;;4906259;29;20368;-94
2021/12/16 02:55:56;;;;;;;52.00;27.50;;;7.10;99.90;;;;;;4894107;29;20091;-96
2021/12/16 02:58:24;;;;;;;57.10;28.33;;;7.10;99.90;;;;;;4894651;29;20529;-96
2021/12/16 03:01:04;;;;;;;56.92;27.13;;;7.20;99.90;;;;;;4909052;29;20039;-95
2021/12/16 03:03:30;;;;;;;58.47;27.63;;;7.20;99.90;;;;;;4914990;29;20039;-96
2021/12/16 03:05:56;;;;;;;54.03;28.48;;;7.20;99.90;;;;;;4883792;29;20043;-95
2021/12/16 03:08:23;;;;;;;58.70;29.23;;;7.20;99.90;;;;;;4902999;29;20066;-95
2021/12/16 03:13:32;;;;;;;60.55;28.10;;;7.20;99.90;;;;;;4918895;29;20051;-95
2021/12/16 03:21:17;;;;;;;58.72;27.10;;;7.20;99.90;;;;;;4897238;29;20047;-96
2021/12/16 03:32:02;;;;;;;53.42;27.20;;;7.30;99.90;;;;;;4915932;29;20048;-96
2021/12/16 03:39:40;;;;;;;;;;;7.90;99.90;;;;;;4924467;29;20055;-96
2021/12/16 03:42:07;;;;;;;60.20;28.58;;;7.30;99.90;;;;;;4919679;29;20020;-96
2021/12/16 03:44:49;;;;;;;54.20;26.30;;;7.30;99.90;;;;;;4902469;29;20047;-95
2021/12/16 03:47:17;;;;;;;54.50;26.75;;;7.30;99.90;;;;;;4905540;29;20073;-95
2021/12/16 03:49:43;;;;;;;53.92;27.52;;;7.30;99.90;;;;;;4899039;29;20072;-95
2021/12/16 03:52:10;;;;;;;48.75;26.45;;;7.40;99.90;;;;;;4886754;29;20067;-95
2021/12/16 03:54:42;;;;;;;54.95;27.73;;;7.30;99.90;;;;;;4893695;29;20083;-95
2021/12/16 03:57:11;;;;;;;56.45;27.55;;;7.30;99.90;;;;;;4916591;29;20075;-96
2021/12/16 03:59:39;;;;;;;54.28;26.80;;;7.40;99.90;;;;;;4904900;29;20119;-95
2021/12/16 04:02:15;;;;;;;52.60;26.45;;;7.30;99.90;;;;;;4904798;29;20090;-96
2021/12/16 04:04:41;;;;;;;53.63;26.67;;;7.30;99.90;;;;;;4902711;29;20044;-96
2021/12/16 04:07:08;;;;;;;56.42;27.80;;;7.30;99.90;;;;;;4902622;29;20043;-96
2021/12/16 04:09:34;;;;;;;52.75;26.55;;;7.30;99.90;;;;;;4874169;29;20075;-96
2021/12/16 04:12:20;;;;;;;55.72;27.30;;;7.30;99.90;;;;;;4890917;29;20063;-96
2021/12/16 04:14:49;;;;;;;48.92;27.92;;;7.30;99.90;;;;;;4903687;29;20051;-96
2021/12/16 04:17:17;;;;;;;57.92;26.92;;;7.30;99.90;;;;;;4904204;29;20051;-95
2021/12/16 04:19:43;;;;;;;57.33;28.15;;;7.60;99.90;;;;;;4916595;29;20179;-95
2021/12/16 04:22:17;;;;;;;52.47;27.60;;;7.70;99.90;;;;;;4905053;29;20115;-95
2021/12/16 04:24:46;;;;;;;59.80;28.85;;;7.20;99.90;;;;;;4907918;29;20040;-96
2021/12/16 04:27:13;;;;;;;60.63;27.90;;;7.10;99.90;;;;;;4906651;29;20043;-95
2021/12/16 04:29:39;;;;;;;60.08;29.00;;;7.10;99.90;;;;;;4904303;29;20039;-95
2021/12/16 04:32:07;;;;;;;61.05;31.15;;;7.10;99.90;;;;;;4896932;29;20083;-95
2021/12/16 04:34:33;;;;;;;61.55;30.45;;;7.00;99.90;;;;;;4890593;29;20749;-96
2021/12/16 04:36:59;;;;;;;64.25;31.60;;;7.20;99.90;;;;;;4881294;29;20071;-96
2021/12/16 04:39:28;;;;;;;65.90;30.48;;;7.10;99.90;;;;;;4894577;29;20028;-95
2021/12/16 04:41:55;;;;;;;60.60;31.02;;;7.30;99.90;;;;;;4904139;29;20906;-95
2021/12/16 04:44:22;;;;;;;65.25;31.65;;;7.10;99.90;;;;;;4919734;29;20043;-95
2021/12/16 04:46:48;;;;;;;65.30;31.50;;;7.20;99.90;;;;;;4908941;29;20039;-95
2021/12/16 04:49:16;;;;;;;67.80;31.60;;;7.10;99.90;;;;;;4907481;29;20123;-95
2021/12/16 04:51:45;;;;;;;62.22;29.75;;;7.10;99.90;;;;;;4901543;29;20534;-95
2021/12/16 04:54:13;;;;;;;62.28;30.90;;;7.30;99.90;;;;;;4919437;29;20059;-95
2021/12/16 04:56:40;;;;;;;61.67;30.25;;;7.10;99.90;;;;;;4891332;29;20462;-96
2021/12/16 04:59:09;;;;;;;66.93;31.65;;;7.40;99.90;;;;;;4904490;29;20752;-96
2021/12/16 05:01:40;;;;;;;70.32;32.92;;;7.10;99.90;;;;;;4915742;29;20039;-95
2021/12/16 05:04:06;;;;;;;59.95;29.00;;;7.10;99.90;;;;;;4911918;29;20040;-95
2021/12/16 05:06:32;;;;;;;56.67;28.85;;;7.10;99.90;;;;;;4896592;29;20064;-94
2021/12/16 05:08:59;;;;;;;70.60;31.02;;;7.10;99.90;;;;;;4888463;29;20078;-96
2021/12/16 05:11:25;;;;;;;60.67;29.42;;;7.20;99.90;;;;;;4904959;29;20036;-95
2021/12/16 05:13:52;;;;;;;59.92;29.08;;;7.20;99.90;;;;;;4895254;29;20054;-95
2021/12/16 05:16:18;;;;;;;63.90;29.80;;;7.50;99.90;;;;;;4890441;29;20390;-95
2021/12/16 05:18:44;;;;;;;61.92;28.40;;;7.60;99.90;;;;;;4890668;29;20044;-95
2021/12/16 05:21:26;;;;;;;68.28;30.25;;;7.90;99.90;;;;;;4914138;29;20461;-95
2021/12/16 05:26:37;;;;;;;63.53;30.65;;;7.30;99.90;;;;;;4908612;29;20036;-95
2021/12/16 05:29:03;;;;;;;65.38;29.25;;;7.10;99.90;;;;;;4892204;29;20065;-96
2021/12/16 05:31:29;;;;;;;62.58;30.17;;;7.20;99.90;;;;;;4914259;29;20039;-96
2021/12/16 05:33:57;;;;;;;63.15;30.02;;;8.20;99.90;;;;;;4910307;29;20055;-95
2021/12/16 05:36:23;;;;;;;67.97;30.77;;;7.10;99.90;;;;;;4907226;29;20071;-96
2021/12/16 05:38:52;;;;;;;65.35;30.38;;;7.70;99.90;;;;;;4892659;29;20036;-95
2021/12/16 05:41:21;;;;;;;58.63;29.48;;;7.80;99.90;;;;;;4877058;29;20028;-96
2021/12/16 05:43:47;;;;;;;66.80;30.30;;;7.10;99.90;;;;;;4920536;29;20043;-95
2021/12/16 05:46:15;;;;;;;58.63;28.58;;;7.80;99.90;;;;;;4907012;29;20687;-96
2021/12/16 05:48:43;;;;;;;63.65;29.50;;;8.10;99.90;;;;;;4903695;29;20130;-96
2021/12/16 05:51:13;;;;;;;65.68;29.65;;;7.10;99.90;;;;;;4889967;29;20090;-94
2021/12/16 05:53:41;;;;;;;61.85;28.90;;;7.10;99.90;;;;;;4907580;29;20123;-95
2021/12/16 05:56:07;;;;;;;65.35;30.50;;;7.20;99.90;;;;;;4903731;29;20122;-95
2021/12/16 05:58:34;;;;;;;61.05;30.67;;;7.70;99.90;;;;;;4911270;29;20042;-96
2021/12/16 06:01:11;;;;;;;58.17;29.55;;;7.70;99.90;;;;;;4905486;29;20046;-96
2021/12/16 06:03:38;;;;;;;60.80;30.05;;;7.20;99.90;;;;;;4897513;29;20041;-96
2021/12/16 06:06:04;;;;;;;61.90;29.60;;;7.90;99.90;;;;;;4894494;29;20047;-96
2021/12/16 06:08:30;;;;;;;59.67;30.33;;;7.20;99.90;;;;;;4900718;29;20040;-95
2021/12/16 06:13:27;;;;;;;63.25;29.75;;;7.20;99.90;;;;;;4923691;29;20062;-96
2021/12/16 06:29:07;;;;;;;62.83;29.25;;;7.20;99.90;;;;;;4919690;29;20051;-95
2021/12/16 06:31:32;;;;;;;67.78;30.50;;;7.80;99.90;;;;;;4906918;29;20444;-96
2021/12/16 06:33:58;;;;;;;60.80;27.88;;;7.20;99.90;;;;;;4902933;29;20044;-96
2021/12/16 06:36:24;;;;;;;60.08;28.25;;;7.30;99.90;;;;;;4920415;29;20035;-96
2021/12/16 06:38:50;;;;;;;59.13;28.58;;;7.20;99.90;;;;;;4896150;29;20576;-96
2021/12/16 06:41:17;;;;;;;59.85;27.75;;;7.30;99.90;;;;;;4904851;29;20052;-95
2021/12/16 06:43:44;;;;;;;56.67;28.05;;;7.70;99.90;;;;;;4925678;29;20035;-96
2021/12/16 06:46:14;;;;;;;56.83;28.50;;;7.30;99.90;;;;;;4893866;29;20137;-96
2021/12/16 06:48:43;;;;;;;62.10;28.77;;;7.30;99.90;;;;;;4875359;29;20123;-96
2021/12/16 06:51:17;;;;;;;58.35;25.73;;;7.30;99.90;;;;;;4922017;29;20105;-95
2021/12/16 06:56:27;;;;;;;60.13;26.80;;;7.30;99.90;;;;;;4909940;29;20465;-96
2021/12/16 06:59:07;;;;;;;61.58;27.60;;;7.30;99.90;;;;;;4905767;29;20272;-95
2021/12/16 07:01:39;;;;;;;57.15;26.30;;;7.30;99.90;;;;;;4891426;29;20035;-96
2021/12/16 07:04:13;;;;;;;59.63;28.25;;;7.30;99.90;;;;;;4892252;29;20044;-96
2021/12/16 07:06:41;;;;;;;62.88;29.02;;;7.30;99.90;;;;;;4919335;29;20090;-96
2021/12/16 07:09:13;;;;;;;55.65;27.85;;;7.50;99.90;;;;;;4892911;29;20047;-95
2021/12/16 07:11:42;;;;;;;55.13;28.77;;;7.30;99.90;;;;;;4917644;29;20040;-89
2021/12/16 07:14:13;;;;;;;56.72;27.92;;;7.30;99.90;;;;;;4919062;29;20500;-94
2021/12/16 07:19:43;;;;;;;57.13;26.35;;;7.20;99.90;;;;;;5136086;23;20416;-95
2021/12/16 07:22:11;;;;;;;58.60;29.27;;;7.70;99.90;;;;;;4949154;28;20110;-94
2021/12/16 07:24:36;;;;;;;59.65;28.65;;;7.20;99.90;;;;;;4932554;29;20106;-96
2021/12/16 07:27:04;;;;;;;61.08;29.20;;;7.10;99.90;;;;;;4921650;28;20500;-92
2021/12/16 07:29:30;;;;;;;64.93;30.35;;;7.10;99.90;;;;;;4933752;28;20043;-94
2021/12/16 07:31:59;;;;;;;55.08;28.40;;;7.10;99.90;;;;;;4918796;28;20608;-94
2021/12/16 07:34:25;;;;;;;64.60;30.88;;;7.00;99.90;;;;;;4931066;28;20030;-91
2021/12/16 07:36:52;;;;;;;65.28;29.85;;;7.00;99.90;;;;;;4930296;28;20073;-96
2021/12/16 07:39:19;;;;;;;60.75;30.70;;;7.20;99.90;;;;;;4941260;28;20066;-92
2021/12/16 07:41:51;;;;;;;60.33;29.63;;;7.00;99.90;;;;;;4953498;28;20073;-93
2021/12/16 07:44:16;;;;;;;66.35;30.45;;;7.40;99.90;;;;;;4933963;28;20102;-91
2021/12/16 07:46:45;;;;;;;68.93;31.35;;;7.50;99.90;;;;;;4926396;28;20035;-91
2021/12/16 07:49:15;;;;;;;59.30;28.27;;;7.90;99.90;;;;;;4936308;29;20039;-92
2021/12/16 07:51:42;;;;;;;65.13;30.20;;;7.40;99.90;;;;;;4926559;28;20039;-92
2021/12/16 07:54:09;;;;;;;65.97;30.13;;;6.80;99.90;;;;;;4939253;28;20035;-90
2021/12/16 07:56:35;;;;;;;62.95;28.70;;;6.90;99.90;;;;;;4957234;28;20113;-92
2021/12/16 07:59:02;;;;;;;71.03;30.10;;;6.70;99.90;;;;;;4949661;28;20046;-92
2021/12/16 08:01:28;;;;;;;64.38;29.27;;;6.80;99.90;;;;;;4956425;28;20096;-90
2021/12/16 08:03:54;;;;;;;64.13;30.15;;;6.70;99.90;;;;;;4923147;28;20141;-88
2021/12/16 08:06:23;;;;;;;72.35;29.52;;;6.60;99.90;;;;;;4903693;28;20043;-91
2021/12/16 08:08:57;;;;;;;73.72;31.10;;;6.60;99.90;;;;;;4927776;28;20066;-92
2021/12/16 08:11:26;;;;;;;65.07;30.88;;;7.10;99.90;;;;;;4936217;28;20456;-90
2021/12/16 08:13:52;;;;;;;73.35;31.70;;;6.60;99.90;;;;;;4925999;28;20609;-90
2021/12/16 08:16:22;;;;;;;86.95;32.60;;;6.60;99.90;;;;;;4910166;28;20040;-91
2021/12/16 08:18:49;;;;;;;87.85;32.25;;;6.60;99.90;;;;;;4915181;29;20054;-89
2021/12/16 08:21:15;;;;;;;79.47;34.15;;;6.60;99.90;;;;;;4980077;28;20039;-90
2021/12/16 08:23:41;;;;;;;77.47;32.28;;;6.60;99.90;;;;;;4936752;28;20031;-90
2021/12/16 08:26:07;;;;;;;74.53;32.55;;;6.60;99.90;;;;;;4890067;28;20167;-90
2021/12/16 08:28:34;;;;;;;79.35;32.15;;;6.80;99.90;;;;;;4940345;28;20065;-90
2021/12/16 08:31:01;;;;;;;85.28;35.58;;;7.40;99.90;;;;;;4891472;29;20436;-90
2021/12/16 08:33:26;;;;;;;82.22;33.53;;;6.50;99.90;;;;;;4939433;28;20039;-91
2021/12/16 08:35:54;;;;;;;81.90;35.08;;;6.60;99.90;;;;;;4888118;28;20099;-90
2021/12/16 08:38:24;;;;;;;88.80;35.97;;;6.60;99.90;;;;;;4907215;28;20101;-90
2021/12/16 08:41:01;;;;;;;92.05;35.50;;;6.70;99.90;;;;;;4963665;28;20074;-90
2021/12/16 08:43:28;;;;;;;89.00;34.90;;;6.80;99.90;;;;;;4943342;28;20031;-92
2021/12/16 08:45:54;;;;;;;86.13;35.20;;;7.30;99.90;;;;;;4923179;28;20050;-90
2021/12/16 08:48:20;;;;;;;86.35;34.70;;;7.00;99.90;;;;;;4932224;28;20042;-90
2021/12/16 08:50:50;;;;;;;83.18;33.13;;;7.10;99.90;;;;;;4927252;29;20050;-90
2021/12/16 08:53:18;;;;;;;80.95;34.67;;;7.30;99.90;;;;;;4933790;28;20050;-90
2021/12/16 08:55:46;;;;;;;88.05;33.75;;;7.20;99.90;;;;;;4921281;28;20032;-90
2021/12/16 08:58:12;;;;;;;80.88;33.75;;;8.10;99.90;;;;;;4921247;28;20122;-90
2021/12/16 09:00:46;;;;;;;72.57;31.77;;;7.30;99.90;;;;;;4902929;28;20067;-90
2021/12/16 09:03:12;;;;;;;83.65;32.75;;;7.30;99.90;;;;;;4921069;28;20039;-91
2021/12/16 09:05:39;;;;;;;73.63;31.92;;;7.30;99.90;;;;;;4905854;28;20392;-90
2021/12/16 09:08:05;;;;;;;81.07;33.53;;;7.30;99.90;;;;;;4903610;28;20054;-90
2021/12/16 09:10:34;;;;;;;79.03;33.97;;;7.30;99.90;;;;;;4938326;28;20034;-89
2021/12/16 09:13:03;;;;;;;80.78;34.80;;;8.00;99.90;;;;;;4926485;29;20051;-91
2021/12/16 09:15:33;;;;;;;90.50;33.95;;;7.30;99.90;;;;;;4932516;29;20086;-89
2021/12/16 09:17:59;;;;;;;92.75;34.70;;;7.40;99.90;;;;;;4919453;29;20098;-90
2021/12/16 09:20:25;;;;;;;85.90;33.80;;;7.70;99.90;;;;;;4916995;29;20564;-88
2021/12/16 09:22:51;;;;;;;78.82;32.78;;;7.40;99.90;;;;;;4910143;29;20189;-88
2021/12/16 09:25:17;;;;;;;76.25;32.15;;;7.40;99.90;;;;;;4949982;28;20039;-88
2021/12/16 09:27:44;;;;;;;77.40;33.10;;;7.50;99.90;;;;;;4922789;28;20043;-88
2021/12/16 09:30:14;;;;;;;77.40;32.65;;;8.30;99.90;;;;;;4950751;28;20140;-87
2021/12/16 09:32:40;;;;;;;87.40;31.30;;;7.50;99.90;;;;;;4952990;28;20566;-88
2021/12/16 09:35:08;;;;;;;95.53;35.30;;;7.50;99.90;;;;;;4937202;28;20039;-87
2021/12/16 09:37:34;;;;;;;91.80;34.40;;;7.50;99.90;;;;;;4936989;28;20034;-89
2021/12/16 09:40:01;;;;;;;88.32;34.10;;;7.40;99.90;;;;;;4922227;28;20046;-90
2021/12/16 09:42:27;;;;;;;83.43;34.30;;;7.50;99.90;;;;;;4924131;28;20039;-82
2021/12/16 09:44:54;;;;;;;93.63;34.38;;;7.00;99.90;;;;;;4935176;28;20046;-83
2021/12/16 09:47:22;;;;;;;93.95;32.50;;;7.60;99.90;;;;;;4953026;28;20412;-84
2021/12/16 09:49:48;;;;;;;93.18;35.33;;;7.50;99.90;;;;;;4935327;28;20050;-89
2021/12/16 09:52:14;;;;;;;101.43;33.55;;;7.60;99.90;;;;;;4936850;28;20045;-90
2021/12/16 09:54:42;;;;;;;93.50;34.60;;;7.60;99.90;;;;;;4904433;28;20411;-88
2021/12/16 09:57:08;;;;;;;86.65;33.80;;;7.60;99.90;;;;;;4943624;28;20035;-87
2021/12/16 09:59:35;;;;;;;86.63;32.50;;;7.60;99.90;;;;;;4936685;28;20113;-84
2021/12/16 10:02:13;;;;;;;90.97;32.53;;;7.70;99.90;;;;;;4952338;28;20039;-87
2021/12/16 10:04:39;;;;;;;78.13;32.10;;;7.80;99.90;;;;;;4931397;28;20047;-87
2021/12/16 10:07:28;;;;;;;85.53;32.78;;;7.80;99.90;;;;;;4935793;28;20078;-86
2021/12/16 10:09:55;;;;;;;75.40;30.98;;;7.80;99.90;;;;;;4936543;28;20070;-84
2021/12/16 10:12:26;;;;;;;84.85;31.52;;;7.90;99.90;;;;;;4939550;28;20551;-82
2021/12/16 10:17:38;;;;;;;79.97;31.73;;;7.80;99.90;;;;;;4939553;28;20131;-83
2021/12/16 10:20:20;;;;;;;80.30;31.70;;;7.90;99.90;;;;;;4956496;28;20595;-87
2021/12/16 10:22:46;;;;;;;78.90;32.20;;;8.00;99.90;;;;;;4944941;28;20310;-86
2021/12/16 10:25:30;;;;;;;77.18;30.25;;;8.00;99.90;;;;;;4911615;29;20103;-88
2021/12/16 10:28:04;;;;;;;77.97;31.00;;;8.00;99.90;;;;;;4929555;28;20047;-86
2021/12/16 10:31:00;;;;;;;81.13;30.75;;;8.00;99.90;;;;;;4926276;28;20070;-87
2021/12/16 10:33:33;;;;;;;82.72;30.70;;;8.20;99.90;;;;;;4935101;29;20051;-95
2021/12/16 10:36:15;;;;;;;71.88;29.88;;;8.00;99.90;;;;;;4931840;28;20042;-94
2021/12/16 10:38:46;;;;;;;83.60;29.70;;;8.10;99.90;;;;;;4953396;28;20416;-96
2021/12/16 10:41:17;;;;;;;71.32;29.92;;;8.40;99.90;;;;;;4959039;28;20472;-96
2021/12/16 10:43:54;;;;;;;74.07;29.33;;;8.10;99.90;;;;;;4946035;28;20043;-95
2021/12/16 10:46:25;;;;;;;91.20;32.60;;;8.20;99.90;;;;;;4940495;29;20130;-94
2021/12/16 10:49:13;;;;;;;76.22;29.20;;;8.20;99.90;;;;;;4966116;28;20042;-95
2021/12/16 10:51:44;;;;;;;69.32;28.38;;;8.20;99.90;;;;;;4963781;28;20125;-89
2021/12/16 10:54:38;;;;;;;72.20;29.90;;;8.20;99.90;;;;;;4952145;28;20053;-95
2021/12/16 10:57:04;;;;;;;69.35;26.00;;;8.20;99.90;;;;;;4950965;28;20105;-90
2021/12/16 10:59:45;;;;;;;77.18;27.38;;;8.20;99.90;;;;;;4947714;28;20043;-90
2021/12/16 11:02:21;;;;;;;66.50;26.58;;;8.20;99.90;;;;;;4926421;29;20554;-92
2021/12/16 11:04:50;;;;;;;64.38;28.42;;;8.20;99.90;;;;;;4954218;28;20137;-93
2021/12/16 11:07:24;;;;;;;67.90;27.45;;;8.20;99.90;;;;;;4945440;28;20131;-91
2021/12/16 11:10:14;;;;;;;72.53;28.15;;;8.20;99.90;;;;;;4956356;28;20050;-90
2021/12/16 11:12:42;;;;;;;75.53;25.35;;;8.10;99.90;;;;;;4944392;28;20054;-95
2021/12/16 11:15:36;;;;;;;60.47;23.55;;;8.20;99.90;;;;;;4946942;28;20039;-96
2021/12/16 11:18:08;;;;;;;56.47;23.67;;;8.20;99.90;;;;;;4939297;28;20620;-92
2021/12/16 11:20:40;;;;;;;57.38;25.00;;;8.20;99.90;;;;;;4946457;28;20043;-94
2021/12/16 11:23:17;;;;;;;53.67;24.42;;;8.20;99.90;;;;;;4960263;28;20050;-93
2021/12/16 11:25:51;;;;;;;77.72;27.40;;;8.20;99.90;;;;;;4954167;28;20050;-93
2021/12/16 11:28:19;;;;;;;74.85;24.13;;;8.30;99.90;;;;;;4945537;28;20043;-90
2021/12/16 11:30:53;;;;;;;67.43;25.85;;;8.30;99.90;;;;;;4934696;28;20045;-96
2021/12/16 11:33:42;;;;;;;65.45;23.52;;;8.30;99.90;;;;;;4944359;28;20535;-92
2021/12/16 11:36:18;;;;;;;60.25;25.08;;;8.30;99.90;;;;;;4933529;28;20050;-92
2021/12/16 11:38:59;;;;;;;60.30;24.45;;;8.30;99.90;;;;;;4947943;28;20050;-93
2021/12/16 11:41:35;;;;;;;57.78;22.83;;;8.30;99.90;;;;;;4946594;28;20049;-94
2021/12/16 11:44:16;;;;;;;63.88;25.38;;;8.30;99.90;;;;;;4953558;28;20039;-95
2021/12/16 11:46:48;;;;;;;60.00;24.52;;;8.30;99.90;;;;;;4947657;28;20073;-95
2021/12/16 11:49:20;;;;;;;56.05;22.95;;;8.30;99.90;;;;;;4954143;28;20045;-95
2021/12/16 11:51:52;;;;;;;68.38;25.83;;;8.30;99.90;;;;;;4949283;28;20134;-90
2021/12/16 11:54:33;;;;;;;63.20;23.95;;;8.30;99.90;;;;;;4935916;28;20042;-91
2021/12/16 11:57:17;;;;;;;61.65;25.88;;;8.30;99.90;;;;;;4945908;28;20070;-94
2021/12/16 11:59:58;;;;;;;68.78;26.77;;;8.30;99.90;;;;;;4950374;28;20062;-89
2021/12/16 12:02:35;;;;;;;83.70;27.73;;;8.40;99.90;;;;;;4932725;28;20031;-91
2021/12/16 12:05:31;;;;;;;86.22;29.98;;;8.50;99.90;;;;;;4949433;28;20110;-94
2021/12/16 12:08:14;;;;;;;79.60;29.23;;;8.40;99.90;;;;;;4934291;28;20043;-92
2021/12/16 12:11:02;;;;;;;67.68;29.10;;;8.40;99.90;;;;;;4930179;28;20047;-88
2021/12/16 12:13:38;;;;;;;70.80;28.27;;;8.40;99.90;;;;;;4927353;28;20400;-88
2021/12/16 12:16:12;;;;;;;78.10;30.00;;;8.40;99.90;;;;;;4943989;28;20066;-90
2021/12/16 12:18:51;;;;;;;76.57;29.20;;;8.40;99.90;;;;;;4927568;28;20467;-86
2021/12/16 12:21:32;;;;;;;64.10;28.95;;;8.40;99.90;;;;;;4926935;28;20507;-87
2021/12/16 12:24:03;;;;;;;80.95;29.17;;;8.40;99.90;;;;;;4927758;28;20705;-89
2021/12/16 12:26:31;;;;;;;66.40;29.13;;;8.40;99.90;;;;;;4942703;28;20569;-91
2021/12/16 12:29:03;;;;;;;84.95;27.33;;;8.40;99.90;;;;;;4927591;28;20646;-89
2021/12/16 12:31:32;;;;;;;63.27;24.80;;;8.40;99.90;;;;;;4962134;28;20110;-89
2021/12/16 12:33:58;;;;;;;57.70;24.88;;;8.40;99.90;;;;;;4943297;28;20282;-90
2021/12/16 12:36:25;;;;;;;51.55;21.98;;;8.40;99.90;;;;;;4911360;28;20050;-88
2021/12/16 12:38:51;;;;;;;57.22;21.30;;;8.50;99.90;;;;;;4930463;28;20093;-94
2021/12/16 12:41:18;;;;;;;56.55;22.52;;;8.50;99.90;;;;;;4915000;28;20046;-89
2021/12/16 12:43:43;;;;;;;54.78;22.42;;;8.50;99.90;;;;;;4943387;28;20058;-87
2021/12/16 12:46:12;;;;;;;67.53;25.65;;;8.50;99.90;;;;;;4943171;28;20047;-90
2021/12/16 12:48:40;;;;;;;69.55;27.33;;;8.50;99.90;;;;;;4926773;28;20051;-90
2021/12/16 12:51:07;;;;;;;62.03;27.10;;;8.50;99.90;;;;;;4928205;28;20129;-92
2021/12/16 12:53:47;;;;;;;64.70;26.80;;;8.50;99.90;;;;;;4927712;28;20047;-89
2021/12/16 12:56:30;;;;;;;61.83;24.88;;;8.50;99.90;;;;;;4938992;28;20373;-90
2021/12/16 12:59:15;;;;;;;51.55;23.20;;;8.50;99.90;;;;;;4926826;28;20066;-89
2021/12/16 13:01:49;;;;;;;56.63;23.55;;;8.50;99.90;;;;;;4941250;28;20047;-96
2021/12/16 13:04:25;;;;;;;59.40;24.50;;;8.50;99.90;;;;;;4944494;28;20078;-91
2021/12/16 13:07:05;;;;;;;55.38;23.48;;;8.50;99.90;;;;;;4947122;28;20066;-92
2021/12/16 13:09:43;;;;;;;65.18;24.35;;;8.50;99.90;;;;;;4945550;28;20034;-86
2021/12/16 13:12:24;;;;;;;59.67;23.75;;;8.50;99.90;;;;;;4944424;28;20105;-91
2021/12/16 13:14:52;;;;;;;57.50;23.13;;;8.50;99.90;;;;;;4941685;28;20153;-86
2021/12/16 13:35:04;;;;;;;57.88;22.95;;;8.50;99.90;;;;;;4905667;29;20079;-95
2021/12/16 13:37:39;;;;;;;73.28;22.98;;;8.50;99.90;;;;;;4934201;28;20039;-96
2021/12/16 13:40:20;;;;;;;65.22;25.52;;;8.40;99.90;;;;;;4933197;28;20038;-95
2021/12/16 13:43:00;;;;;;;63.30;24.77;;;8.40;99.90;;;;;;4932669;28;20101;-94
2021/12/16 13:45:46;;;;;;;65.05;22.90;;;8.40;99.90;;;;;;4934558;28;20297;-91
2021/12/16 13:49:10;;;;;;;63.15;24.15;;;8.40;99.90;;;;;;4933754;28;20488;-92
2021/12/16 14:04:05;;;;;;;59.78;22.42;;;8.40;99.90;;;;;;4950548;28;20046;-94
2021/12/16 14:06:55;;;;;;;64.20;22.92;;;8.40;99.90;;;;;;4935449;28;20098;-95
2021/12/16 14:09:29;;;;;;;64.82;23.33;;;8.30;99.90;;;;;;4948833;28;20126;-94
2021/12/16 14:17:28;;;;;;;61.33;22.95;;;8.30;99.90;;;;;;4944146;28;20062;-86
2021/12/16 14:23:22;;;;;;;64.32;23.23;;;8.30;99.90;;;;;;4941544;28;20093;-85
2021/12/16 14:48:02;;;;;;;80.68;25.92;;;8.20;99.90;;;;;;4934061;28;20991;-87
2021/12/16 14:50:34;;;;;;;94.90;26.00;;;8.20;99.90;;;;;;4922001;28;20070;-88
2021/12/16 14:52:59;;;;;;;82.80;25.13;;;8.20;99.90;;;;;;4921792;28;20042;-87
2021/12/16 14:55:27;;;;;;;74.45;24.58;;;8.20;99.90;;;;;;4889494;28;20958;-88
2021/12/16 14:57:56;;;;;;;86.85;25.77;;;8.20;99.90;;;;;;4901593;28;20229;-87
2021/12/16 15:00:30;;;;;;;86.00;25.20;;;8.20;99.90;;;;;;4936391;28;20060;-87
2021/12/16 15:03:19;;;;;;;73.45;24.85;;;8.20;99.90;;;;;;4920924;28;20109;-87
2021/12/16 15:05:52;;;;;;;73.82;25.13;;;8.20;99.90;;;;;;4921304;28;20054;-87
2021/12/16 15:08:53;;;;;;;73.15;25.17;;;8.20;99.90;;;;;;4920079;28;20102;-88
2021/12/16 15:11:19;;;;;;;71.45;24.98;;;8.20;99.90;;;;;;4937744;28;20609;-86
2021/12/16 15:13:53;;;;;;;76.07;24.75;;;8.20;99.90;;;;;;4919474;28;20046;-87
2021/12/16 15:34:38;;;;;;;83.88;27.17;;;8.20;99.90;;;;;;4937929;28;20626;-87
2021/12/16 15:40:58;;;;;;;83.20;28.63;;;8.10;99.90;;;;;;4921246;28;20393;-87
2021/12/16 15:43:32;;;;;;;71.93;26.25;;;8.10;99.90;;;;;;4917564;28;20038;-87
2021/12/16 15:45:59;;;;;;;83.18;26.45;;;8.10;99.90;;;;;;4919549;28;20520;-87
2021/12/16 15:48:28;;;;;;;94.50;28.08;;;8.00;99.90;;;;;;4919662;28;20052;-88
2021/12/16 15:50:57;;;;;;;76.28;25.50;;;8.10;99.90;;;;;;4936601;28;20057;-87
2021/12/16 15:53:39;;;;;;;79.65;25.95;;;8.30;99.90;;;;;;4923569;28;20070;-87
2021/12/16 15:56:10;;;;;;;;;;;8.00;99.90;;;;;;4920762;28;20556;-87
2021/12/16 15:58:41;;;;;;;85.20;26.63;;;8.00;99.90;;;;;;4936387;28;19929;-87
2021/12/16 16:01:14;;;;;;;89.53;26.77;;;8.30;99.90;;;;;;4918469;28;20583;-88
2021/12/16 16:03:40;;;;;;;95.03;27.83;;;8.10;99.90;;;;;;4934904;28;20090;-87
2021/12/16 16:06:09;;;;;;;90.80;28.83;;;8.00;99.90;;;;;;4932512;28;20254;-87
2021/12/16 16:08:41;;;;;;;106.25;29.92;;;8.50;99.90;;;;;;4934298;28;20046;-87
2021/12/16 16:11:11;;;;;;;152.88;34.38;;;7.90;99.90;;;;;;4936161;28;20051;-86
2021/12/16 16:13:47;;;;;;;140.80;34.53;;;8.00;99.90;;;;;;4936132;28;20483;-87
2021/12/16 16:16:16;;;;;;;114.40;28.88;;;7.90;99.90;;;;;;4936930;28;20054;-86
2021/12/16 16:18:54;;;;;;;138.63;31.90;;;8.00;99.90;;;;;;4936506;28;20117;-87
2021/12/16 16:21:24;;;;;;;131.68;32.88;;;8.00;99.90;;;;;;4938028;28;20109;-87
2021/12/16 16:23:54;;;;;;;131.98;32.75;;;8.10;99.90;;;;;;4919047;28;20042;-88
2021/12/16 16:26:21;;;;;;;135.88;34.17;;;8.30;99.90;;;;;;4917708;28;21525;-88
2021/12/16 16:28:52;;;;;;;119.90;30.95;;;8.30;99.90;;;;;;4918679;28;20045;-88
2021/12/16 16:31:24;;;;;;;171.55;35.10;;;8.20;99.90;;;;;;4934711;28;20051;-88
2021/12/16 16:33:51;;;;;;;176.73;36.53;;;7.90;99.90;;;;;;4919654;28;20050;-89
2021/12/16 16:36:22;;;;;;;166.63;33.60;;;8.20;99.90;;;;;;4919773;28;20133;-89
2021/12/16 16:38:58;;;;;;;175.73;34.00;;;7.90;99.90;;;;;;4921191;28;20522;-90
2021/12/16 16:41:28;;;;;;;149.60;32.60;;;7.90;99.90;;;;;;4937285;28;20461;-89
2021/12/16 16:44:04;;;;;;;126.65;31.52;;;7.90;99.90;;;;;;4918673;28;20105;-89
2021/12/16 16:46:39;;;;;;;136.27;30.60;;;7.90;99.90;;;;;;4933653;28;20544;-89
2021/12/16 16:49:09;;;;;;;98.63;29.88;;;8.00;99.90;;;;;;4917617;28;20050;-89
2021/12/16 16:51:38;;;;;;;106.97;28.90;;;7.90;99.90;;;;;;4935326;28;20047;-88
2021/12/16 16:54:18;;;;;;;127.15;35.85;;;7.80;99.90;;;;;;4938290;28;20158;-88
2021/12/16 16:56:47;;;;;;;135.82;31.13;;;7.80;99.90;;;;;;4923199;28;20492;-88
2021/12/16 16:59:30;;;;;;;130.48;32.35;;;7.70;99.90;;;;;;4920351;28;20039;-88
2021/12/16 17:02:03;;;;;;;101.60;28.52;;;7.70;99.90;;;;;;4916706;28;20110;-88
2021/12/16 17:04:32;;;;;;;114.15;27.77;;;7.70;99.90;;;;;;4921231;28;20248;-88